sensor_id;sensor_type;location;lat;lon;timestamp;pressure;altitude;pressure_sealevel;temperature;humidity
75697;BME280;64312;44.738;20.612;2022-10-16T00:00:57;100866.84;;;11.91;68.91
75697;BME280;64312;44.738;20.612;2022-10-16T00:03:23;100861.84;;;11.88;69.15
75697;BME280;64312;44.738;20.612;2022-10-16T00:05:48;100855.81;;;11.86;69.22
75697;BME280;64312;44.738;20.612;2022-10-16T00:08:14;100863.91;;;11.86;69.51
75697;BME280;64312;44.738;20.612;2022-10-16T00:10:40;100861.38;;;11.84;69.79
75697;BME280;64312;44.738;20.612;2022-10-16T00:13:06;100871.53;;;11.82;69.86
75697;BME280;64312;44.738;20.612;2022-10-16T00:15:34;100870.03;;;11.80;69.70
75697;BME280;64312;44.738;20.612;2022-10-16T00:18:02;100883.66;;;11.78;69.91
75697;BME280;64312;44.738;20.612;2022-10-16T00:20:29;100886.38;;;11.78;69.84
75697;BME280;64312;44.738;20.612;2022-10-16T00:22:56;100888.91;;;11.80;69.76
75697;BME280;64312;44.738;20.612;2022-10-16T00:25:22;100887.91;;;11.81;69.66
75697;BME280;64312;44.738;20.612;2022-10-16T00:27:48;100884.19;;;11.82;70.08
75697;BME280;64312;44.738;20.612;2022-10-16T00:30:14;100891.06;;;11.84;69.89
75697;BME280;64312;44.738;20.612;2022-10-16T00:32:39;100889.19;;;11.85;70.11
75697;BME280;64312;44.738;20.612;2022-10-16T00:35:05;100885.66;;;11.84;70.37
75697;BME280;64312;44.738;20.612;2022-10-16T00:37:31;100887.34;;;11.85;70.34
75697;BME280;64312;44.738;20.612;2022-10-16T00:39:57;100879.25;;;11.85;70.45
75697;BME280;64312;44.738;20.612;2022-10-16T00:42:23;100874.22;;;11.82;70.33
75697;BME280;64312;44.738;20.612;2022-10-16T00:44:52;100888.34;;;11.84;70.70
75697;BME280;64312;44.738;20.612;2022-10-16T00:47:22;100885.66;;;11.84;70.44
75697;BME280;64312;44.738;20.612;2022-10-16T00:49:52;100879.63;;;11.82;70.25
75697;BME280;64312;44.738;20.612;2022-10-16T00:52:19;100875.25;;;11.81;70.32
75697;BME280;64312;44.738;20.612;2022-10-16T00:54:46;100873.38;;;11.82;70.25
75697;BME280;64312;44.738;20.612;2022-10-16T00:57:12;100869.19;;;11.79;70.37
75697;BME280;64312;44.738;20.612;2022-10-16T00:59:40;100873.56;;;11.80;70.26
75697;BME280;64312;44.738;20.612;2022-10-16T01:02:09;100869.03;;;11.81;70.32
75697;BME280;64312;44.738;20.612;2022-10-16T01:04:38;100865.81;;;11.77;70.75
75697;BME280;64312;44.738;20.612;2022-10-16T01:12:23;100881.84;;;11.79;70.98
75697;BME280;64312;44.738;20.612;2022-10-16T01:15:11;100883.50;;;11.80;71.18
75697;BME280;64312;44.738;20.612;2022-10-16T01:18:22;100890.75;;;11.79;70.91
75697;BME280;64312;44.738;20.612;2022-10-16T01:20:46;100880.13;;;11.78;70.88
75697;BME280;64312;44.738;20.612;2022-10-16T01:23:31;100892.97;;;11.76;71.10
75697;BME280;64312;44.738;20.612;2022-10-16T01:28:59;100889.44;;;11.75;71.22
75697;BME280;64312;44.738;20.612;2022-10-16T01:31:29;100883.56;;;11.72;70.81
75697;BME280;64312;44.738;20.612;2022-10-16T01:33:59;100885.91;;;11.75;70.88
75697;BME280;64312;44.738;20.612;2022-10-16T01:36:29;100883.56;;;11.72;70.76
75697;BME280;64312;44.738;20.612;2022-10-16T01:38:59;100890.66;;;11.73;70.76
75697;BME280;64312;44.738;20.612;2022-10-16T01:41:38;100893.19;;;11.74;70.92
75697;BME280;64312;44.738;20.612;2022-10-16T01:44:18;100891.66;;;11.72;71.01
75697;BME280;64312;44.738;20.612;2022-10-16T01:46:48;100894.19;;;11.73;71.03
75697;BME280;64312;44.738;20.612;2022-10-16T01:49:18;100882.75;;;11.71;70.91
75697;BME280;64312;44.738;20.612;2022-10-16T01:51:49;100882.75;;;11.71;71.17
75697;BME280;64312;44.738;20.612;2022-10-16T01:54:17;100893.91;;;11.68;71.32
75697;BME280;64312;44.738;20.612;2022-10-16T01:56:45;100899.66;;;11.65;71.22
75697;BME280;64312;44.738;20.612;2022-10-16T01:59:14;100890.09;;;11.62;71.34
75697;BME280;64312;44.738;20.612;2022-10-16T02:01:42;100898.19;;;11.62;71.28
75697;BME280;64312;44.738;20.612;2022-10-16T02:04:21;100891.97;;;11.62;71.56
75697;BME280;64312;44.738;20.612;2022-10-16T02:06:49;100891.03;;;11.55;71.57
75697;BME280;64312;44.738;20.612;2022-10-16T02:09:14;100898.38;;;11.61;71.76
75697;BME280;64312;44.738;20.612;2022-10-16T02:11:43;100902.75;;;11.62;71.62
75697;BME280;64312;44.738;20.612;2022-10-16T02:14:09;100903.28;;;11.57;71.35
75697;BME280;64312;44.738;20.612;2022-10-16T02:16:40;100905.69;;;11.52;71.65
75697;BME280;64312;44.738;20.612;2022-10-16T02:19:13;100906.91;;;11.50;71.53
75697;BME280;64312;44.738;20.612;2022-10-16T02:24:31;100909.19;;;11.38;71.85
75697;BME280;64312;44.738;20.612;2022-10-16T02:27:19;100923.91;;;11.35;71.94
75697;BME280;64312;44.738;20.612;2022-10-16T02:29:51;100907.81;;;11.27;72.06
75697;BME280;64312;44.738;20.612;2022-10-16T02:32:24;100914.03;;;11.28;72.24
75697;BME280;64312;44.738;20.612;2022-10-16T02:34:54;100918.94;;;11.24;72.15
75697;BME280;64312;44.738;20.612;2022-10-16T02:37:20;100912.59;;;11.17;72.48
75697;BME280;64312;44.738;20.612;2022-10-16T02:39:46;100916.13;;;11.18;72.52
75697;BME280;64312;44.738;20.612;2022-10-16T02:42:12;100919.72;;;11.10;72.42
75697;BME280;64312;44.738;20.612;2022-10-16T02:44:39;100918.22;;;11.07;72.72
75697;BME280;64312;44.738;20.612;2022-10-16T02:47:05;100923.78;;;11.06;72.64
75697;BME280;64312;44.738;20.612;2022-10-16T02:49:31;100929.75;;;11.01;73.09
75697;BME280;64312;44.738;20.612;2022-10-16T02:51:56;100926.19;;;11.01;73.18
75697;BME280;64312;44.738;20.612;2022-10-16T02:54:22;100916.13;;;10.95;72.95
75697;BME280;64312;44.738;20.612;2022-10-16T02:56:47;100930.28;;;10.97;73.11
75697;BME280;64312;44.738;20.612;2022-10-16T02:59:13;100927.09;;;10.93;72.52
75697;BME280;64312;44.738;20.612;2022-10-16T03:01:39;100933.16;;;10.95;72.91
75697;BME280;64312;44.738;20.612;2022-10-16T03:04:04;100931.44;;;10.94;72.83
75697;BME280;64312;44.738;20.612;2022-10-16T03:06:30;100931.81;;;10.91;72.91
75697;BME280;64312;44.738;20.612;2022-10-16T03:08:56;100925.41;;;10.92;73.40
75697;BME280;64312;44.738;20.612;2022-10-16T03:11:21;100913.16;;;10.90;73.25
75697;BME280;64312;44.738;20.612;2022-10-16T03:13:47;100918.03;;;10.86;72.96
75697;BME280;64312;44.738;20.612;2022-10-16T03:16:12;100920.94;;;10.84;72.97
75697;BME280;64312;44.738;20.612;2022-10-16T03:18:38;100933.25;;;10.79;73.45
75697;BME280;64312;44.738;20.612;2022-10-16T03:21:04;100938.31;;;10.74;73.47
75697;BME280;64312;44.738;20.612;2022-10-16T03:23:30;100941.38;;;10.71;73.38
75697;BME280;64312;44.738;20.612;2022-10-16T03:25:55;100932.81;;;10.67;73.48
75697;BME280;64312;44.738;20.612;2022-10-16T03:28:21;100934.19;;;10.63;73.85
75697;BME280;64312;44.738;20.612;2022-10-16T03:30:46;100939.94;;;10.60;73.60
75697;BME280;64312;44.738;20.612;2022-10-16T03:33:12;100936.91;;;10.55;73.76
75697;BME280;64312;44.738;20.612;2022-10-16T03:35:37;100937.09;;;10.53;73.72
75697;BME280;64312;44.738;20.612;2022-10-16T03:38:03;100944.72;;;10.50;73.71
75697;BME280;64312;44.738;20.612;2022-10-16T03:40:29;100950.44;;;10.47;73.39
75697;BME280;64312;44.738;20.612;2022-10-16T03:42:56;100952.66;;;10.43;73.84
75697;BME280;64312;44.738;20.612;2022-10-16T03:45:23;100953.81;;;10.41;73.89
75697;BME280;64312;44.738;20.612;2022-10-16T03:47:49;100957.53;;;10.40;73.56
75697;BME280;64312;44.738;20.612;2022-10-16T03:50:14;100960.22;;;10.40;74.10
75697;BME280;64312;44.738;20.612;2022-10-16T03:52:40;100956.19;;;10.36;73.99
75697;BME280;64312;44.738;20.612;2022-10-16T03:55:09;100955.91;;;10.30;73.96
75697;BME280;64312;44.738;20.612;2022-10-16T03:57:34;100963.28;;;10.28;73.73
75697;BME280;64312;44.738;20.612;2022-10-16T04:00:00;100966.16;;;10.27;74.15
75697;BME280;64312;44.738;20.612;2022-10-16T04:02:26;100968.00;;;10.26;74.31
75697;BME280;64312;44.738;20.612;2022-10-16T04:04:51;100962.97;;;10.23;74.28
75697;BME280;64312;44.738;20.612;2022-10-16T04:07:17;100965.66;;;10.23;74.36
75697;BME280;64312;44.738;20.612;2022-10-16T04:09:42;100967.66;;;10.21;74.27
75697;BME280;64312;44.738;20.612;2022-10-16T04:12:08;100967.00;;;10.19;73.88
75697;BME280;64312;44.738;20.612;2022-10-16T04:14:33;100967.00;;;10.19;74.42
75697;BME280;64312;44.738;20.612;2022-10-16T04:16:59;100960.28;;;10.15;73.92
75697;BME280;64312;44.738;20.612;2022-10-16T04:19:24;100952.91;;;10.09;74.05
75697;BME280;64312;44.738;20.612;2022-10-16T04:21:50;100965.34;;;10.10;73.75
75697;BME280;64312;44.738;20.612;2022-10-16T04:24:16;100966.53;;;10.08;73.46
75697;BME280;64312;44.738;20.612;2022-10-16T04:26:42;100981.47;;;10.10;74.31
75697;BME280;64312;44.738;20.612;2022-10-16T04:29:07;100975.44;;;10.08;74.44
75697;BME280;64312;44.738;20.612;2022-10-16T04:31:33;100982.66;;;10.08;74.38
75697;BME280;64312;44.738;20.612;2022-10-16T04:33:58;100979.47;;;10.04;73.53
75697;BME280;64312;44.738;20.612;2022-10-16T04:36:24;100975.66;;;9.98;74.30
75697;BME280;64312;44.738;20.612;2022-10-16T04:38:49;100985.53;;;9.98;74.25
75697;BME280;64312;44.738;20.612;2022-10-16T04:41:15;100982.84;;;9.98;74.72
75697;BME280;64312;44.738;20.612;2022-10-16T04:43:41;100983.72;;;9.98;74.48
75697;BME280;64312;44.738;20.612;2022-10-16T04:46:07;100989.41;;;9.95;75.04
75697;BME280;64312;44.738;20.612;2022-10-16T04:48:32;100981.72;;;9.92;75.19
75697;BME280;64312;44.738;20.612;2022-10-16T04:50:59;100981.34;;;9.95;74.96
75697;BME280;64312;44.738;20.612;2022-10-16T04:53:24;100983.72;;;9.98;74.88
75697;BME280;64312;44.738;20.612;2022-10-16T04:55:50;100987.25;;;9.99;74.77
75697;BME280;64312;44.738;20.612;2022-10-16T04:58:16;100979.50;;;9.96;74.84
75697;BME280;64312;44.738;20.612;2022-10-16T05:00:44;100985.53;;;9.98;75.19
75697;BME280;64312;44.738;20.612;2022-10-16T05:03:11;100982.84;;;9.98;75.53
75697;BME280;64312;44.738;20.612;2022-10-16T05:05:42;100982.84;;;9.98;74.78
75697;BME280;64312;44.738;20.612;2022-10-16T05:08:10;101000.50;;;10.00;75.13
75697;BME280;64312;44.738;20.612;2022-10-16T05:10:35;101006.72;;;10.01;75.25
75697;BME280;64312;44.738;20.612;2022-10-16T05:13:01;100999.69;;;10.00;75.11
75697;BME280;64312;44.738;20.612;2022-10-16T05:15:27;101007.06;;;9.98;75.23
75697;BME280;64312;44.738;20.612;2022-10-16T05:17:53;101003.53;;;9.97;74.38
75697;BME280;64312;44.738;20.612;2022-10-16T05:20:19;101006.22;;;9.97;74.86
75697;BME280;64312;44.738;20.612;2022-10-16T05:22:45;101018.81;;;9.97;74.64
75697;BME280;64312;44.738;20.612;2022-10-16T05:25:10;101020.84;;;9.95;74.69
75697;BME280;64312;44.738;20.612;2022-10-16T05:27:36;101028.28;;;9.93;74.56
75697;BME280;64312;44.738;20.612;2022-10-16T05:30:02;101014.50;;;9.88;74.00
75697;BME280;64312;44.738;20.612;2022-10-16T05:32:27;101023.56;;;9.87;74.65
75697;BME280;64312;44.738;20.612;2022-10-16T05:34:53;101033.50;;;9.86;74.09
75697;BME280;64312;44.738;20.612;2022-10-16T05:37:18;101032.97;;;9.83;74.13
75697;BME280;64312;44.738;20.612;2022-10-16T05:39:44;101043.41;;;9.86;74.81
75697;BME280;64312;44.738;20.612;2022-10-16T05:42:10;101041.38;;;9.88;74.82
75697;BME280;64312;44.738;20.612;2022-10-16T05:44:35;101052.13;;;9.88;74.96
75697;BME280;64312;44.738;20.612;2022-10-16T05:47:01;101040.03;;;9.84;74.97
75697;BME280;64312;44.738;20.612;2022-10-16T05:49:26;101059.53;;;9.86;74.60
75697;BME280;64312;44.738;20.612;2022-10-16T05:51:52;101046.09;;;9.77;74.66
75697;BME280;64312;44.738;20.612;2022-10-16T05:54:17;101054.50;;;9.83;75.19
75697;BME280;64312;44.738;20.612;2022-10-16T05:56:43;101061.53;;;9.84;74.79
75697;BME280;64312;44.738;20.612;2022-10-16T05:59:08;101064.75;;;9.87;75.17
75697;BME280;64312;44.738;20.612;2022-10-16T06:01:34;101063.38;;;9.91;75.59
75697;BME280;64312;44.738;20.612;2022-10-16T06:04:00;101066.22;;;9.98;75.46
75697;BME280;64312;44.738;20.612;2022-10-16T06:06:27;101070.44;;;10.00;76.21
75697;BME280;64312;44.738;20.612;2022-10-16T06:08:55;101079.34;;;10.01;75.44
75697;BME280;64312;44.738;20.612;2022-10-16T06:11:23;101076.84;;;9.99;75.21
75697;BME280;64312;44.738;20.612;2022-10-16T06:13:54;101078.53;;;10.00;75.25
75697;BME280;64312;44.738;20.612;2022-10-16T06:16:23;101083.72;;;10.02;75.17
75697;BME280;64312;44.738;20.612;2022-10-16T06:18:51;101086.94;;;10.06;75.54
75697;BME280;64312;44.738;20.612;2022-10-16T06:21:19;101083.88;;;10.09;75.17
75697;BME280;64312;44.738;20.612;2022-10-16T06:23:46;101088.41;;;10.16;74.92
75697;BME280;64312;44.738;20.612;2022-10-16T06:26:14;101085.91;;;10.23;75.21
75697;BME280;64312;44.738;20.612;2022-10-16T06:28:40;101081.03;;;10.26;75.02
75697;BME280;64312;44.738;20.612;2022-10-16T06:31:07;101086.41;;;10.35;75.28
75697;BME280;64312;44.738;20.612;2022-10-16T06:33:34;101093.97;;;10.39;74.88
75697;BME280;64312;44.738;20.612;2022-10-16T06:36:09;101099.13;;;10.49;74.90
75697;BME280;64312;44.738;20.612;2022-10-16T06:38:35;101101.31;;;10.53;75.80
75697;BME280;64312;44.738;20.612;2022-10-16T06:41:01;101103.84;;;10.63;75.73
75697;BME280;64312;44.738;20.612;2022-10-16T06:43:30;101102.97;;;10.71;75.66
75697;BME280;64312;44.738;20.612;2022-10-16T06:46:04;101111.50;;;10.82;75.06
75697;BME280;64312;44.738;20.612;2022-10-16T06:48:30;101108.78;;;10.91;74.96
75697;BME280;64312;44.738;20.612;2022-10-16T06:51:00;101122.53;;;11.04;75.14
75697;BME280;64312;44.738;20.612;2022-10-16T06:53:32;101122.28;;;11.13;74.78
75697;BME280;64312;44.738;20.612;2022-10-16T06:56:07;101131.53;;;11.27;74.71
75697;BME280;64312;44.738;20.612;2022-10-16T06:58:33;101128.59;;;11.37;74.31
75697;BME280;64312;44.738;20.612;2022-10-16T07:00:58;101128.00;;;11.50;74.01
75697;BME280;64312;44.738;20.612;2022-10-16T07:03:24;101137.56;;;11.60;73.64
75697;BME280;64312;44.738;20.612;2022-10-16T07:05:49;101138.00;;;11.72;73.06
75697;BME280;64312;44.738;20.612;2022-10-16T07:08:16;101139.09;;;11.86;72.63
75697;BME280;64312;44.738;20.612;2022-10-16T07:10:41;101146.59;;;11.99;71.92
75697;BME280;64312;44.738;20.612;2022-10-16T07:13:07;101146.63;;;12.13;71.54
75697;BME280;64312;44.738;20.612;2022-10-16T07:15:33;101145.16;;;12.26;71.42
75697;BME280;64312;44.738;20.612;2022-10-16T07:17:59;101135.97;;;12.35;70.63
75697;BME280;64312;44.738;20.612;2022-10-16T07:20:24;101147.66;;;12.50;70.35
75697;BME280;64312;44.738;20.612;2022-10-16T07:22:50;101145.31;;;12.62;69.80
75697;BME280;64312;44.738;20.612;2022-10-16T07:25:16;101144.66;;;12.74;69.67
75697;BME280;64312;44.738;20.612;2022-10-16T07:27:42;101152.13;;;12.87;69.32
75697;BME280;64312;44.738;20.612;2022-10-16T07:30:08;101155.38;;;12.97;68.95
75697;BME280;64312;44.738;20.612;2022-10-16T07:32:34;101154.72;;;13.10;68.23
75697;BME280;64312;44.738;20.612;2022-10-16T07:34:59;101145.34;;;13.21;68.17
75697;BME280;64312;44.738;20.612;2022-10-16T07:37:25;101145.03;;;13.31;67.42
75697;BME280;64312;44.738;20.612;2022-10-16T07:39:51;101146.41;;;13.41;67.28
75697;BME280;64312;44.738;20.612;2022-10-16T07:42:17;101147.13;;;13.50;67.14
75697;BME280;64312;44.738;20.612;2022-10-16T07:44:42;101144.28;;;13.58;66.63
75697;BME280;64312;44.738;20.612;2022-10-16T07:47:08;101152.75;;;13.70;66.03
75697;BME280;64312;44.738;20.612;2022-10-16T07:49:34;101148.91;;;13.79;65.64
75697;BME280;64312;44.738;20.612;2022-10-16T07:52:00;101154.19;;;13.87;65.47
75697;BME280;64312;44.738;20.612;2022-10-16T07:54:25;101152.19;;;13.96;65.52
75697;BME280;64312;44.738;20.612;2022-10-16T07:56:51;101155.41;;;14.06;64.68
75697;BME280;64312;44.738;20.612;2022-10-16T07:59:17;101160.88;;;14.13;63.78
75697;BME280;64312;44.738;20.612;2022-10-16T08:01:43;101159.91;;;14.20;64.06
75697;BME280;64312;44.738;20.612;2022-10-16T08:04:09;101161.63;;;14.28;63.46
75697;BME280;64312;44.738;20.612;2022-10-16T08:06:36;101159.25;;;14.40;63.73
75697;BME280;64312;44.738;20.612;2022-10-16T08:09:02;101160.78;;;14.49;63.75
75697;BME280;64312;44.738;20.612;2022-10-16T08:11:28;101158.78;;;14.57;63.27
75697;BME280;64312;44.738;20.612;2022-10-16T08:13:53;101157.22;;;14.70;63.32
75697;BME280;64312;44.738;20.612;2022-10-16T08:16:19;101164.97;;;14.79;62.70
75697;BME280;64312;44.738;20.612;2022-10-16T08:18:45;101162.97;;;14.88;61.99
75697;BME280;64312;44.738;20.612;2022-10-16T08:21:16;101165.28;;;14.98;61.91
75697;BME280;64312;44.738;20.612;2022-10-16T08:23:42;101171.38;;;15.06;61.40
75697;BME280;64312;44.738;20.612;2022-10-16T08:26:09;101172.28;;;15.13;61.09
75697;BME280;64312;44.738;20.612;2022-10-16T08:28:35;101170.22;;;15.22;60.93
75697;BME280;64312;44.738;20.612;2022-10-16T08:31:20;101171.91;;;15.30;60.66
75697;BME280;64312;44.738;20.612;2022-10-16T08:33:46;101167.34;;;15.37;59.85
75697;BME280;64312;44.738;20.612;2022-10-16T08:36:13;101173.25;;;15.47;59.74
75697;BME280;64312;44.738;20.612;2022-10-16T08:38:43;101169.72;;;15.53;60.20
75697;BME280;64312;44.738;20.612;2022-10-16T08:41:22;101167.09;;;15.66;60.22
75697;BME280;64312;44.738;20.612;2022-10-16T08:44:05;101170.22;;;15.77;60.53
75697;BME280;64312;44.738;20.612;2022-10-16T08:46:42;101174.44;;;15.86;59.77
75697;BME280;64312;44.738;20.612;2022-10-16T08:49:19;101175.50;;;15.98;60.54
75697;BME280;64312;44.738;20.612;2022-10-16T08:51:46;101170.69;;;16.07;60.17
75697;BME280;64312;44.738;20.612;2022-10-16T08:54:23;101167.56;;;16.16;60.25
75697;BME280;64312;44.738;20.612;2022-10-16T08:56:54;101181.81;;;16.25;58.76
75697;BME280;64312;44.738;20.612;2022-10-16T08:59:20;101182.03;;;16.30;58.29
75697;BME280;64312;44.738;20.612;2022-10-16T09:01:47;101188.06;;;16.39;58.43
75697;BME280;64312;44.738;20.612;2022-10-16T09:13:23;101187.66;;;16.68;56.95
75697;BME280;64312;44.738;20.612;2022-10-16T09:16:12;101181.81;;;16.78;57.03
75697;BME280;64312;44.738;20.612;2022-10-16T09:21:22;101199.13;;;16.97;57.29
75697;BME280;64312;44.738;20.612;2022-10-16T09:23:50;101190.13;;;17.03;56.70
75697;BME280;64312;44.738;20.612;2022-10-16T09:26:16;101190.09;;;17.10;55.83
75697;BME280;64312;44.738;20.612;2022-10-16T09:28:43;101191.75;;;17.17;55.75
75697;BME280;64312;44.738;20.612;2022-10-16T09:31:17;101192.56;;;17.24;56.02
75697;BME280;64312;44.738;20.612;2022-10-16T09:33:47;101195.91;;;17.33;56.07
75697;BME280;64312;44.738;20.612;2022-10-16T09:36:13;101185.00;;;17.33;55.13
75697;BME280;64312;44.738;20.612;2022-10-16T09:38:39;101191.03;;;17.42;54.88
75697;BME280;64312;44.738;20.612;2022-10-16T09:41:16;101189.56;;;17.46;54.86
75697;BME280;64312;44.738;20.612;2022-10-16T09:43:55;101183.25;;;17.52;54.87
75697;BME280;64312;44.738;20.612;2022-10-16T09:46:26;101190.94;;;17.62;54.99
75697;BME280;64312;44.738;20.612;2022-10-16T09:48:56;101192.81;;;17.68;55.02
75697;BME280;64312;44.738;20.612;2022-10-16T09:53:56;101195.31;;;17.76;54.57
75697;BME280;64312;44.738;20.612;2022-10-16T09:56:27;101191.09;;;17.80;53.92
75697;BME280;64312;44.738;20.612;2022-10-16T09:58:56;101184.78;;;17.86;53.58
75697;BME280;64312;44.738;20.612;2022-10-16T10:01:26;101192.31;;;17.91;54.00
75697;BME280;64312;44.738;20.612;2022-10-16T10:03:56;101188.91;;;17.95;53.17
75697;BME280;64312;44.738;20.612;2022-10-16T10:06:40;101198.91;;;18.01;53.72
75697;BME280;64312;44.738;20.612;2022-10-16T10:09:27;101194.25;;;18.08;53.58
75697;BME280;64312;44.738;20.612;2022-10-16T10:16:50;101188.91;;;18.27;52.74
75697;BME280;64312;44.738;20.612;2022-10-16T10:19:23;101191.56;;;18.33;52.50
75697;BME280;64312;44.738;20.612;2022-10-16T10:21:50;101194.25;;;18.40;53.72
75697;BME280;64312;44.738;20.612;2022-10-16T10:24:18;101196.69;;;18.48;53.61
75697;BME280;64312;44.738;20.612;2022-10-16T10:26:51;101189.50;;;18.54;52.49
75697;BME280;64312;44.738;20.612;2022-10-16T10:46:03;101169.53;;;18.85;50.94
75697;BME280;64312;44.738;20.612;2022-10-16T10:48:58;101170.28;;;18.92;51.50
75697;BME280;64312;44.738;20.612;2022-10-16T10:51:35;101174.47;;;18.94;51.45
75697;BME280;64312;44.738;20.612;2022-10-16T10:54:16;101170.84;;;19.01;51.25
75697;BME280;64312;44.738;20.612;2022-10-16T10:57:22;101173.69;;;19.06;51.17
75697;BME280;64312;44.738;20.612;2022-10-16T11:00:20;101175.75;;;19.10;50.64
75697;BME280;64312;44.738;20.612;2022-10-16T11:10:42;101162.94;;;19.29;50.95
75697;BME280;64312;44.738;20.612;2022-10-16T11:13:26;101152.75;;;19.36;50.41
75697;BME280;64312;44.738;20.612;2022-10-16T11:15:58;101160.50;;;19.39;49.99
75697;BME280;64312;44.738;20.612;2022-10-16T11:18:39;101157.31;;;19.42;50.50
75697;BME280;64312;44.738;20.612;2022-10-16T11:21:13;101154.13;;;19.45;49.70
75697;BME280;64312;44.738;20.612;2022-10-16T11:26:16;101152.72;;;19.55;50.21
75697;BME280;64312;44.738;20.612;2022-10-16T11:28:47;101151.00;;;19.60;50.08
75697;BME280;64312;44.738;20.612;2022-10-16T11:31:19;101153.06;;;19.65;49.65
75697;BME280;64312;44.738;20.612;2022-10-16T11:34:32;101149.84;;;19.68;49.94
75697;BME280;64312;44.738;20.612;2022-10-16T11:37:21;101149.41;;;19.71;49.58
75697;BME280;64312;44.738;20.612;2022-10-16T11:39:50;101139.91;;;19.73;49.07
75697;BME280;64312;44.738;20.612;2022-10-16T11:42:37;101140.25;;;19.77;49.24
75697;BME280;64312;44.738;20.612;2022-10-16T11:47:52;101142.91;;;19.84;48.81
75697;BME280;64312;44.738;20.612;2022-10-16T11:50:25;101137.56;;;19.89;48.85
75697;BME280;64312;44.738;20.612;2022-10-16T11:53:01;101140.09;;;19.90;48.35
75697;BME280;64312;44.738;20.612;2022-10-16T11:55:34;101142.91;;;19.95;48.01
75697;BME280;64312;44.738;20.612;2022-10-16T11:58:16;101144.13;;;19.99;48.28
75697;BME280;64312;44.738;20.612;2022-10-16T12:01:16;101143.44;;;20.04;48.30
75697;BME280;64312;44.738;20.612;2022-10-16T12:06:48;101126.69;;;20.12;49.16
75697;BME280;64312;44.738;20.612;2022-10-16T12:09:22;101130.63;;;20.16;48.80
75697;BME280;64312;44.738;20.612;2022-10-16T12:11:49;101128.25;;;20.20;48.64
75697;BME280;64312;44.738;20.612;2022-10-16T12:16:51;101132.31;;;20.29;48.78
75697;BME280;64312;44.738;20.612;2022-10-16T12:19:18;101127.44;;;20.31;48.08
75697;BME280;64312;44.738;20.612;2022-10-16T12:21:45;101120.88;;;20.32;47.98
75697;BME280;64312;44.738;20.612;2022-10-16T12:24:33;101116.81;;;20.35;46.99
75697;BME280;64312;44.738;20.612;2022-10-16T12:27:01;101121.84;;;20.38;47.94
75697;BME280;64312;44.738;20.612;2022-10-16T12:29:32;101124.47;;;20.44;47.99
75697;BME280;64312;44.738;20.612;2022-10-16T12:31:59;101117.13;;;20.45;48.10
75697;BME280;64312;44.738;20.612;2022-10-16T12:37:13;101119.47;;;20.53;48.03
75697;BME280;64312;44.738;20.612;2022-10-16T12:39:40;101120.94;;;20.55;48.23
75697;BME280;64312;44.738;20.612;2022-10-16T12:44:54;101117.69;;;20.59;47.51
75697;BME280;64312;44.738;20.612;2022-10-16T12:50:28;101126.84;;;20.76;48.31
75697;BME280;64312;44.738;20.612;2022-10-16T12:52:54;101132.66;;;20.79;46.75
75697;BME280;64312;44.738;20.612;2022-10-16T12:55:21;101124.25;;;20.81;46.60
75697;BME280;64312;44.738;20.612;2022-10-16T13:00:44;101133.16;;;20.88;45.41
75697;BME280;64312;44.738;20.612;2022-10-16T13:14:00;101140.75;;;20.98;45.63
75697;BME280;64312;44.738;20.612;2022-10-16T13:19:52;101145.50;;;21.02;47.67
75697;BME280;64312;44.738;20.612;2022-10-16T13:27:59;101137.41;;;21.07;46.35
75697;BME280;64312;44.738;20.612;2022-10-16T13:30:31;101147.03;;;21.10;47.12
75697;BME280;64312;44.738;20.612;2022-10-16T13:35:30;101146.56;;;21.13;46.49
75697;BME280;64312;44.738;20.612;2022-10-16T13:40:57;101147.38;;;21.14;46.02
75697;BME280;64312;44.738;20.612;2022-10-16T13:45:55;101145.47;;;21.14;46.18
75697;BME280;64312;44.738;20.612;2022-10-16T13:48:21;101145.47;;;21.14;46.73
75697;BME280;64312;44.738;20.612;2022-10-16T13:51:01;101143.56;;;21.15;46.89
75697;BME280;64312;44.738;20.612;2022-10-16T13:53:30;101136.91;;;21.10;46.06
75697;BME280;64312;44.738;20.612;2022-10-16T13:55:56;101142.38;;;21.10;47.43
75697;BME280;64312;44.738;20.612;2022-10-16T13:58:22;101141.81;;;21.08;47.86
75697;BME280;64312;44.738;20.612;2022-10-16T14:00:59;101145.38;;;21.09;47.00
75697;BME280;64312;44.738;20.612;2022-10-16T14:03:27;101140.59;;;21.04;46.91
75697;BME280;64312;44.738;20.612;2022-10-16T14:05:56;101146.09;;;21.04;46.35
75697;BME280;64312;44.738;20.612;2022-10-16T14:08:24;101142.41;;;20.99;47.67
75697;BME280;64312;44.738;20.612;2022-10-16T14:10:53;101153.34;;;20.99;46.66
75697;BME280;64312;44.738;20.612;2022-10-16T14:13:37;101150.28;;;20.95;46.70
75697;BME280;64312;44.738;20.612;2022-10-16T14:16:27;101153.25;;;20.94;47.23
75697;BME280;64312;44.738;20.612;2022-10-16T14:19:03;101152.91;;;20.90;46.62
75697;BME280;64312;44.738;20.612;2022-10-16T14:21:32;101151.69;;;20.86;46.60
75697;BME280;64312;44.738;20.612;2022-10-16T14:23:58;101145.88;;;20.82;47.48
75697;BME280;64312;44.738;20.612;2022-10-16T14:26:27;101157.91;;;20.81;47.24
75697;BME280;64312;44.738;20.612;2022-10-16T14:29:18;101158.63;;;20.77;46.69
75697;BME280;64312;44.738;20.612;2022-10-16T14:32:05;101153.03;;;20.72;46.81
75697;BME280;64312;44.738;20.612;2022-10-16T14:34:34;101157.34;;;20.68;47.50
75697;BME280;64312;44.738;20.612;2022-10-16T14:37:08;101152.31;;;20.65;48.57